This is the latest recevied weather packets stored in our database for station/object WB4ROX-10. If no packets are shown the sender has not sent any weather packets the latest 10 day(s).
| Time | Temp. | Humidity | Pressure | Rain* | Wind** | Luminosity | Snow |
|---|---|---|---|---|---|---|---|
| 1777878140 | 5.56° C | 59% | 1008.8 hPa | 0 mm | - | - | - |
| 1777877840 | 5.56° C | 59% | 1008.9 hPa | 0 mm | - | - | - |
| 1777877240 | 5.56° C | 57% | 1009 hPa | 0 mm | - | - | - |
| 1777875441 | 6.11° C | 54% | 1009.1 hPa | 0 mm | - | - | - |
| 1777874841 | 6.11° C | 52% | 1009.3 hPa | 0 mm | - | - | - |
| 1777867640 | 6.67° C | 41% | 1009.3 hPa | 0 mm | - | - | - |
| 1777865842 | 6.11° C | 40% | 1009.3 hPa | 0 mm | - | - | - |
| 1777811241 | -1.11° C | 75% | 1008.9 hPa | 0 mm | - | - | - |
| 1777807340 | -2.22° C | 87% | 1008.2 hPa | 0 mm | - | - | - |
| 1777721240 | 1.67° C | 88% | 1005.1 hPa | 0 mm | - | - | - |
| 1777720940 | 1.67° C | 88% | 1005.2 hPa | 0 mm | - | - | - |
| 1777720340 | 1.67° C | 89% | 1005.3 hPa | 0 mm | - | - | - |
| 1777718240 | 1.67° C | 93% | 1004.9 hPa | 0 mm | - | - | - |
| 1777717940 | 1.67° C | 93% | 1004.9 hPa | 0 mm | - | - | - |
| 1777717640 | 2.22° C | 93% | 1004.9 hPa | 0 mm | - | - | - |
| 1777717340 | 2.22° C | 93% | 1005.1 hPa | 0 mm | - | - | - |
| 1777717040 | 2.22° C | 93% | 1004.8 hPa | 0 mm | - | - | - |
| 1777716740 | 2.22° C | 93% | 1005 hPa | 0 mm | - | - | - |
| 1777716440 | 2.22° C | 94% | 1004.8 hPa | 0 mm | - | - | - |
| 1777716140 | 2.22° C | 94% | 1004.9 hPa | 0 mm | - | - | - |
| 1777715840 | 2.22° C | 94% | 1004.9 hPa | 0 mm | - | - | - |
| 1777715540 | 2.22° C | 94% | 1005.1 hPa | 0 mm | - | - | - |
| 1777715240 | 2.22° C | 94% | 1004.8 hPa | 0 mm | - | - | - |
| 1777714940 | 2.22° C | 94% | 1005.2 hPa | 0 mm | - | - | - |
| 1777714641 | 2.22° C | 94% | 1005.2 hPa | 0 mm | - | - | - |
* Rain latest hour (hover to see other rain measurements)
** Current wind speed in m/s (hover to see current wind gust speed)